Time;durP1;ratioP1;P1;durP2;ratioP2;P2;SDS_P1;SDS_P2;PMS_P1;PMS_P2;Temp;Humidity;BMP_temperature;BMP_pressure;BME280_temperature;BME280_humidity;BME280_pressure;Samples;Min_cycle;Max_cycle;Signal;HPM_P1;HPM_P2
2020/12/27 00:02:06;;;;;;;10.35;4.72;;;-0.30;99.90;;;;;;5046952;28;20875;-50
2020/12/27 00:04:31;;;;;;;11.02;5.10;;;1.30;99.90;;;;;;5048018;28;20544;-50
2020/12/27 00:07:02;;;;;;;10.32;4.82;;;-0.30;99.90;;;;;;5048917;28;20767;-51
2020/12/27 00:09:27;;;;;;;10.30;4.73;;;1.90;99.90;;;;;;5047942;28;20480;-51
2020/12/27 00:11:53;;;;;;;8.57;4.10;;;0.10;99.90;;;;;;5049641;28;20451;-51
2020/12/27 00:14:19;;;;;;;8.05;4.40;;;-0.30;99.90;;;;;;5047664;28;20404;-51
2020/12/27 00:16:44;;;;;;;10.70;5.00;;;2.20;99.90;;;;;;5048071;28;20401;-52
2020/12/27 00:19:10;;;;;;;8.50;4.27;;;-0.30;99.90;;;;;;5048061;28;20389;-56
2020/12/27 00:21:35;;;;;;;8.27;4.10;;;-0.20;99.90;;;;;;5049711;28;20388;-50
2020/12/27 00:24:01;;;;;;;10.77;4.68;;;-0.20;99.90;;;;;;5049621;28;20374;-51
2020/12/27 00:26:27;;;;;;;7.50;4.40;;;-0.20;99.90;;;;;;5047113;28;20440;-50
2020/12/27 00:28:52;;;;;;;9.30;4.30;;;2.50;99.90;;;;;;5049786;28;20977;-50
2020/12/27 00:31:18;;;;;;;10.88;4.80;;;-0.20;99.90;;;;;;5062194;28;20466;-51
2020/12/27 00:33:44;;;;;;;10.10;4.65;;;-0.20;99.90;;;;;;5049577;28;20396;-51
2020/12/27 00:36:09;;;;;;;8.43;4.50;;;-0.30;99.90;;;;;;5046800;28;20436;-57
2020/12/27 00:38:35;;;;;;;7.83;4.03;;;-0.40;99.90;;;;;;5047938;28;20402;-51
2020/12/27 00:41:01;;;;;;;9.30;4.60;;;2.50;99.90;;;;;;5047220;28;20405;-54
2020/12/27 00:43:27;;;;;;;9.32;4.47;;;2.00;99.90;;;;;;5048183;28;20381;-50
2020/12/27 00:45:52;;;;;;;9.65;4.50;;;-0.40;99.90;;;;;;5047892;28;20484;-50
2020/12/27 00:48:18;;;;;;;8.73;4.20;;;-0.40;99.90;;;;;;5048407;28;20559;-51
2020/12/27 00:50:48;;;;;;;8.80;4.13;;;-0.50;99.90;;;;;;5047691;28;20419;-51
2020/12/27 00:53:14;;;;;;;7.40;4.00;;;-0.40;99.90;;;;;;5048483;28;20382;-51
2020/12/27 00:55:39;;;;;;;8.88;4.03;;;-0.40;99.90;;;;;;5049430;28;20452;-51
2020/12/27 00:58:05;;;;;;;7.22;3.67;;;-0.50;99.90;;;;;;5047766;28;20477;-50
2020/12/27 01:00:30;;;;;;;8.63;4.20;;;-0.50;99.90;;;;;;5048354;28;20484;-50
2020/12/27 01:02:57;;;;;;;10.80;3.77;;;-0.50;99.90;;;;;;5049247;28;20416;-51
2020/12/27 01:05:22;;;;;;;8.70;4.22;;;-0.40;99.90;;;;;;5047031;28;20408;-50
2020/12/27 01:07:48;;;;;;;9.63;3.93;;;-0.40;99.90;;;;;;5049197;28;20414;-50
2020/12/27 01:10:14;;;;;;;8.90;4.10;;;1.10;99.90;;;;;;5048290;28;20868;-55
2020/12/27 01:12:39;;;;;;;8.70;4.20;;;-0.40;99.90;;;;;;5047564;28;20397;-51
2020/12/27 01:15:07;;;;;;;10.00;4.60;;;2.20;99.90;;;;;;5027342;28;20474;-51
2020/12/27 01:17:33;;;;;;;9.88;4.22;;;2.70;99.90;;;;;;5015476;28;20459;-52
2020/12/27 01:19:59;;;;;;;9.30;4.50;;;0.00;99.90;;;;;;5051510;28;20809;-51
2020/12/27 01:22:24;;;;;;;7.90;4.10;;;2.70;99.90;;;;;;5052187;28;20855;-51
2020/12/27 01:24:50;;;;;;;8.70;4.30;;;-0.20;99.90;;;;;;5051208;28;20400;-50
2020/12/27 01:27:15;;;;;;;10.50;4.10;;;-0.30;99.90;;;;;;5050662;28;20867;-51
2020/12/27 01:29:41;;;;;;;9.82;4.63;;;-0.20;99.90;;;;;;5050791;28;20450;-50
2020/12/27 01:32:06;;;;;;;9.70;4.47;;;-0.20;99.90;;;;;;5052869;28;20463;-50
2020/12/27 01:34:32;;;;;;;10.30;4.53;;;-0.20;99.90;;;;;;5050217;28;20397;-50
2020/12/27 01:36:58;;;;;;;9.90;4.18;;;-0.30;99.90;;;;;;5051966;28;20481;-50
2020/12/27 01:39:23;;;;;;;8.98;4.20;;;-0.40;99.90;;;;;;5051604;28;20370;-53
2020/12/27 01:41:51;;;;;;;9.47;4.40;;;-0.40;99.90;;;;;;5038851;28;20399;-51
2020/12/27 01:44:17;;;;;;;9.00;4.45;;;2.50;99.90;;;;;;5051302;28;20409;-51
2020/12/27 01:46:45;;;;;;;9.05;4.85;;;-0.40;99.90;;;;;;5052339;28;20894;-50
2020/12/27 01:49:11;;;;;;;10.35;4.60;;;-0.30;99.90;;;;;;5050630;28;20416;-56
2020/12/27 01:51:37;;;;;;;12.50;4.60;;;-0.40;99.90;;;;;;5051960;28;20535;-50
2020/12/27 01:54:04;;;;;;;8.23;4.80;;;-0.40;99.90;;;;;;5050946;28;20400;-50
2020/12/27 01:56:38;;;;;;;10.52;4.70;;;-0.50;99.90;;;;;;5050048;28;20532;-52
2020/12/27 01:59:06;;;;;;;11.15;4.95;;;-0.50;99.90;;;;;;5051898;28;20385;-50
2020/12/27 02:01:36;;;;;;;9.93;4.30;;;-0.50;99.90;;;;;;5049679;28;20460;-51
2020/12/27 02:04:03;;;;;;;11.07;4.40;;;-0.50;99.90;;;;;;5051866;28;20847;-50
2020/12/27 02:06:29;;;;;;;9.35;4.60;;;-0.50;99.90;;;;;;5049606;28;20406;-50
2020/12/27 02:08:56;;;;;;;9.35;4.60;;;-0.60;99.90;;;;;;5051715;28;20392;-50
2020/12/27 02:11:22;;;;;;;9.10;4.57;;;-0.50;99.90;;;;;;5049749;28;20397;-51
2020/12/27 02:13:49;;;;;;;9.57;5.28;;;-0.50;99.90;;;;;;5051583;28;20873;-51
2020/12/27 02:16:20;;;;;;;11.30;4.22;;;1.30;99.90;;;;;;5049188;28;20490;-50
2020/12/27 02:18:46;;;;;;;12.32;5.30;;;-0.50;99.90;;;;;;5051768;28;20369;-51
2020/12/27 02:21:12;;;;;;;10.60;4.90;;;-0.50;99.90;;;;;;5048630;28;20394;-51
2020/12/27 02:23:38;;;;;;;8.90;4.70;;;1.30;99.90;;;;;;5051489;28;20384;-50
2020/12/27 02:26:05;;;;;;;10.40;5.00;;;-0.40;99.90;;;;;;5050293;28;20416;-50
2020/12/27 02:28:31;;;;;;;10.52;5.10;;;-0.40;99.90;;;;;;5049151;28;20417;-50
2020/12/27 02:30:57;;;;;;;10.13;5.53;;;-0.40;99.90;;;;;;5050669;28;20451;-50
2020/12/27 02:33:23;;;;;;;10.07;5.00;;;-0.40;99.90;;;;;;5049439;28;20420;-50
2020/12/27 02:35:48;;;;;;;10.50;4.80;;;-0.50;99.90;;;;;;5051179;28;20393;-50
2020/12/27 02:38:14;;;;;;;13.73;5.00;;;-0.50;99.90;;;;;;5049717;28;20405;-51
2020/12/27 02:40:43;;;;;;;9.93;4.87;;;-0.50;99.90;;;;;;5051107;28;20369;-51
2020/12/27 02:43:17;;;;;;;11.50;4.80;;;1.90;99.90;;;;;;5049210;28;20472;-53
2020/12/27 02:45:43;;;;;;;9.35;4.80;;;2.20;99.90;;;;;;5039239;28;20740;-50
2020/12/27 02:48:09;;;;;;;11.50;4.95;;;-0.40;99.90;;;;;;5030074;28;20912;-51
2020/12/27 02:50:34;;;;;;;10.50;4.30;;;-0.40;99.90;;;;;;5050173;28;20389;-50
2020/12/27 02:53:01;;;;;;;11.00;5.10;;;-0.40;99.90;;;;;;5049475;28;20863;-50
2020/12/27 02:55:26;;;;;;;10.90;4.72;;;2.50;99.90;;;;;;5049988;28;20410;-51
2020/12/27 02:57:53;;;;;;;8.90;4.50;;;-0.40;99.90;;;;;;5049609;28;20443;-50
2020/12/27 03:00:19;;;;;;;9.30;4.22;;;-0.40;99.90;;;;;;5049848;28;20403;-50
2020/12/27 03:02:45;;;;;;;9.15;4.22;;;-0.30;99.90;;;;;;5049391;28;20393;-52
2020/12/27 03:05:10;;;;;;;9.77;3.90;;;-0.40;99.90;;;;;;5051003;28;20496;-56
2020/12/27 03:07:36;;;;;;;7.30;3.40;;;1.30;99.90;;;;;;5049665;28;20822;-51
2020/12/27 03:10:03;;;;;;;8.93;4.10;;;2.20;99.90;;;;;;5050141;28;20398;-51
2020/12/27 03:12:28;;;;;;;7.87;3.40;;;2.30;99.90;;;;;;5048990;28;20475;-51
2020/12/27 03:14:54;;;;;;;10.17;4.10;;;-0.30;99.90;;;;;;5049728;28;20393;-50
2020/12/27 03:17:20;;;;;;;10.00;3.58;;;-0.50;99.90;;;;;;5049564;28;20863;-51
2020/12/27 03:19:45;;;;;;;8.50;3.60;;;-0.10;99.90;;;;;;5049568;28;20939;-53
2020/12/27 03:22:15;;;;;;;8.40;3.47;;;-0.50;99.90;;;;;;5050322;28;20404;-55
2020/12/27 03:24:42;;;;;;;7.40;3.80;;;-0.50;99.90;;;;;;5048481;28;20436;-51
2020/12/27 03:27:08;;;;;;;8.85;3.90;;;-3.60;99.90;;;;;;5049356;28;20421;-50
2020/12/27 03:29:34;;;;;;;7.10;3.90;;;-0.50;99.90;;;;;;5048683;28;20456;-50
2020/12/27 03:31:59;;;;;;;7.30;4.00;;;1.90;99.90;;;;;;5049145;28;20397;-52
2020/12/27 03:34:25;;;;;;;8.40;3.88;;;2.60;99.90;;;;;;5048934;28;20901;-50
2020/12/27 03:36:51;;;;;;;8.98;3.80;;;1.00;99.90;;;;;;5049455;28;20519;-51
2020/12/27 03:39:16;;;;;;;9.53;3.73;;;-0.30;99.90;;;;;;5047492;28;20410;-51
2020/12/27 03:41:42;;;;;;;7.30;3.87;;;-0.40;99.90;;;;;;5050098;28;20416;-50
2020/12/27 03:44:07;;;;;;;7.28;3.50;;;-0.40;99.90;;;;;;5048557;28;20475;-50
2020/12/27 03:46:33;;;;;;;8.80;4.07;;;-0.40;99.90;;;;;;5048934;28;21118;-50
2020/12/27 03:48:59;;;;;;;8.37;3.87;;;-0.40;99.90;;;;;;5048829;28;20401;-50
2020/12/27 03:51:24;;;;;;;8.40;3.63;;;-0.40;99.90;;;;;;5049072;28;20461;-50
2020/12/27 03:53:50;;;;;;;7.38;3.42;;;-0.40;99.90;;;;;;5048744;28;20385;-50
2020/12/27 03:56:16;;;;;;;7.22;3.50;;;-0.40;99.90;;;;;;5049159;28;20732;-51
2020/12/27 03:58:41;;;;;;;8.27;4.13;;;-0.40;99.90;;;;;;5048710;28;20873;-51
2020/12/27 04:01:07;;;;;;;9.30;3.63;;;-0.10;99.90;;;;;;5049340;28;20436;-51
2020/12/27 04:03:32;;;;;;;8.05;4.60;;;-0.30;99.90;;;;;;5048022;28;20903;-50
2020/12/27 04:05:58;;;;;;;8.50;4.63;;;-0.40;99.90;;;;;;5049756;28;20391;-50
2020/12/27 04:08:24;;;;;;;8.63;4.50;;;-0.50;99.90;;;;;;5048477;28;20493;-51
2020/12/27 04:10:49;;;;;;;12.27;4.88;;;-0.40;99.90;;;;;;5048664;28;20750;-50
2020/12/27 04:13:15;;;;;;;7.83;3.80;;;1.80;99.90;;;;;;5048960;28;20435;-51
2020/12/27 04:15:41;;;;;;;9.40;4.40;;;-0.60;99.90;;;;;;5048601;28;20495;-50
2020/12/27 04:18:06;;;;;;;10.35;4.28;;;-0.60;99.90;;;;;;5049628;28;20377;-50
2020/12/27 04:20:32;;;;;;;9.25;4.40;;;-0.60;99.90;;;;;;5047428;28;20890;-50
2020/12/27 04:22:58;;;;;;;9.27;5.03;;;-0.60;99.90;;;;;;5049674;28;20384;-50
2020/12/27 04:25:23;;;;;;;10.60;4.47;;;-0.70;99.90;;;;;;5047387;28;20404;-50
2020/12/27 04:27:49;;;;;;;8.47;4.63;;;-0.70;99.90;;;;;;5047209;28;20450;-50
2020/12/27 04:30:15;;;;;;;9.40;5.00;;;-0.80;99.90;;;;;;5047637;28;20446;-51
2020/12/27 04:32:40;;;;;;;11.15;5.00;;;-0.80;99.90;;;;;;5049143;28;20871;-50
2020/12/27 04:35:06;;;;;;;12.88;5.50;;;2.10;99.90;;;;;;5049607;28;20384;-51
2020/12/27 04:37:32;;;;;;;9.70;5.30;;;2.00;99.90;;;;;;5047036;28;21011;-48
2020/12/27 04:39:57;;;;;;;8.73;4.90;;;-0.80;99.90;;;;;;5049382;28;20410;-50
2020/12/27 04:42:24;;;;;;;8.32;4.50;;;1.80;99.90;;;;;;5047406;28;20397;-51
2020/12/27 04:44:51;;;;;;;10.10;4.70;;;-0.80;99.90;;;;;;5049069;28;20811;-51
2020/12/27 04:47:17;;;;;;;10.10;4.67;;;-0.90;99.90;;;;;;5046850;28;20417;-51
2020/12/27 04:49:43;;;;;;;11.07;5.20;;;-0.90;99.90;;;;;;5048250;28;20405;-52
2020/12/27 04:52:11;;;;;;;10.60;4.80;;;-0.90;99.90;;;;;;5048833;28;20389;-50
2020/12/27 04:54:37;;;;;;;9.25;4.40;;;-0.80;99.90;;;;;;5051467;28;20416;-51
2020/12/27 04:57:03;;;;;;;8.70;4.90;;;-0.60;99.90;;;;;;5051122;28;20409;-51
2020/12/27 04:59:29;;;;;;;10.73;4.80;;;-0.80;99.90;;;;;;5051922;28;20418;-50
2020/12/27 05:01:55;;;;;;;10.20;5.20;;;-0.80;99.90;;;;;;5052713;28;20431;-50
2020/12/27 05:04:26;;;;;;;11.23;5.00;;;-0.80;99.90;;;;;;5051230;28;20895;-52
2020/12/27 05:07:00;;;;;;;9.02;5.18;;;-0.90;99.90;;;;;;5052980;28;20409;-51
2020/12/27 05:09:27;;;;;;;9.45;4.80;;;-1.00;99.90;;;;;;5050635;28;20405;-51
2020/12/27 05:11:53;;;;;;;8.60;4.20;;;-0.90;99.90;;;;;;5052171;28;20890;-50
2020/12/27 05:14:29;;;;;;;8.35;4.22;;;-0.80;99.90;;;;;;5051184;28;20412;-50
2020/12/27 05:16:57;;;;;;;9.10;4.03;;;-0.70;99.90;;;;;;5051482;28;20431;-50
2020/12/27 05:19:24;;;;;;;8.70;4.22;;;2.20;99.90;;;;;;5051913;28;20393;-51
2020/12/27 05:21:50;;;;;;;8.48;4.32;;;-0.50;99.90;;;;;;5052155;28;20708;-51
2020/12/27 05:24:19;;;;;;;8.35;4.20;;;-0.50;99.90;;;;;;5050910;28;20397;-56
2020/12/27 05:26:46;;;;;;;8.90;4.00;;;-0.50;99.90;;;;;;5052605;28;20413;-50
2020/12/27 05:29:28;;;;;;;9.55;4.43;;;-0.50;99.90;;;;;;5049864;28;20405;-50
2020/12/27 05:31:54;;;;;;;7.78;4.07;;;-0.50;99.90;;;;;;5052529;28;20393;-50
2020/12/27 05:34:19;;;;;;;8.70;4.50;;;-0.60;99.90;;;;;;5051370;28;20390;-52
2020/12/27 05:36:45;;;;;;;9.20;4.30;;;-0.50;99.90;;;;;;5051517;28;20401;-50
2020/12/27 05:39:15;;;;;;;7.20;3.97;;;-0.50;99.90;;;;;;5050654;28;20421;-51
2020/12/27 05:41:41;;;;;;;7.13;4.05;;;-0.60;99.90;;;;;;5051695;28;20436;-50
2020/12/27 05:44:06;;;;;;;9.75;4.38;;;0.40;99.90;;;;;;5050814;28;20393;-50
2020/12/27 05:46:32;;;;;;;7.88;4.70;;;-0.60;99.90;;;;;;5050023;28;20432;-50
2020/12/27 05:48:58;;;;;;;8.47;4.20;;;-0.60;99.90;;;;;;5052019;28;20790;-50
2020/12/27 05:51:25;;;;;;;8.60;4.35;;;-0.50;99.90;;;;;;5050113;28;20429;-50
2020/12/27 05:53:52;;;;;;;7.00;3.70;;;-0.50;99.90;;;;;;5052034;28;20439;-50
2020/12/27 05:56:19;;;;;;;9.07;4.30;;;-0.50;99.90;;;;;;5049852;28;20393;-52
2020/12/27 05:58:46;;;;;;;8.07;3.58;;;-0.40;99.90;;;;;;5050222;28;20484;-50
2020/12/27 06:01:22;;;;;;;7.97;3.80;;;1.10;99.90;;;;;;5052127;28;20389;-50
2020/12/27 06:04:02;;;;;;;9.50;4.70;;;-0.30;99.90;;;;;;5051772;28;20423;-52
2020/12/27 06:06:59;;;;;;;7.00;3.92;;;0.90;99.90;;;;;;5045454;28;20931;-50
2020/12/27 06:10:00;;;;;;;7.43;4.20;;;-0.20;99.90;;;;;;5049995;28;20405;-51
2020/12/27 06:12:46;;;;;;;8.90;3.63;;;-0.20;99.90;;;;;;4989117;28;20402;-51
2020/12/27 06:15:42;;;;;;;9.63;4.03;;;1.20;99.90;;;;;;5046050;28;20409;-50
2020/12/27 06:18:10;;;;;;;7.40;3.80;;;-0.20;99.90;;;;;;5050258;28;20393;-51
2020/12/27 06:20:38;;;;;;;8.33;3.90;;;-0.20;99.90;;;;;;5049659;28;20403;-51
2020/12/27 06:23:04;;;;;;;8.30;4.20;;;2.30;99.90;;;;;;5051503;28;20388;-51
2020/12/27 06:25:31;;;;;;;7.40;3.55;;;2.90;99.90;;;;;;5049372;28;20893;-50
2020/12/27 06:27:57;;;;;;;7.73;3.60;;;-0.20;99.90;;;;;;5033344;28;20405;-51
2020/12/27 06:30:34;;;;;;;7.67;3.80;;;-0.30;99.90;;;;;;5050645;28;20393;-51
2020/12/27 06:33:16;;;;;;;8.20;3.42;;;-0.30;99.90;;;;;;5050341;28;20393;-50
2020/12/27 06:35:45;;;;;;;8.52;3.60;;;-0.40;99.90;;;;;;5050634;28;20776;-51
2020/12/27 06:38:18;;;;;;;7.70;3.67;;;-0.30;99.90;;;;;;5050154;28;20428;-50
2020/12/27 06:40:46;;;;;;;7.85;3.45;;;-0.30;99.90;;;;;;5049939;28;20488;-50
2020/12/27 06:43:16;;;;;;;7.47;3.80;;;-0.40;99.90;;;;;;5050780;28;20393;-50
2020/12/27 06:45:42;;;;;;;8.27;3.83;;;-0.30;99.90;;;;;;5050524;28;20743;-50
2020/12/27 06:48:08;;;;;;;7.57;3.60;;;2.60;99.90;;;;;;5049517;28;20410;-50
2020/12/27 06:50:43;;;;;;;8.18;4.10;;;-0.40;99.90;;;;;;5049937;28;20412;-50
2020/12/27 06:53:45;;;;;;;7.22;3.83;;;0.90;99.90;;;;;;5051079;28;20377;-51
2020/12/27 06:56:13;;;;;;;8.07;3.90;;;-0.40;99.90;;;;;;5044962;28;20409;-50
2020/12/27 06:58:40;;;;;;;8.88;4.30;;;-0.30;99.90;;;;;;5044915;28;20467;-50
2020/12/27 07:01:14;;;;;;;9.18;4.63;;;-0.30;99.90;;;;;;5047813;28;21597;-50
2020/12/27 07:03:41;;;;;;;7.28;3.70;;;-0.30;99.90;;;;;;5049399;28;20400;-50
2020/12/27 07:06:25;;;;;;;8.88;4.10;;;-0.30;99.90;;;;;;5048331;28;20471;-50
2020/12/27 07:08:55;;;;;;;7.95;4.07;;;-0.20;99.90;;;;;;5049293;28;20417;-50
2020/12/27 07:11:22;;;;;;;9.20;3.78;;;-0.30;99.90;;;;;;5049739;28;20370;-50
2020/12/27 07:13:53;;;;;;;8.00;4.00;;;-0.20;99.90;;;;;;5047737;28;20404;-52
2020/12/27 07:16:19;;;;;;;8.20;3.75;;;-0.20;99.90;;;;;;5042923;28;20397;-51
2020/12/27 07:18:48;;;;;;;8.52;3.30;;;2.80;99.90;;;;;;5050097;28;20370;-50
2020/12/27 07:21:22;;;;;;;8.02;3.72;;;-0.20;99.90;;;;;;5048664;28;20883;-50
2020/12/27 07:24:11;;;;;;;7.53;3.50;;;-0.20;99.90;;;;;;5049843;28;20412;-51
2020/12/27 07:26:44;;;;;;;10.10;3.70;;;-0.10;99.90;;;;;;5048462;28;20419;-51
2020/12/27 07:29:12;;;;;;;7.28;3.90;;;-0.20;99.90;;;;;;5049531;28;20397;-50
2020/12/27 07:31:39;;;;;;;8.40;4.40;;;-0.10;99.90;;;;;;5048324;28;21100;-51
2020/12/27 07:34:05;;;;;;;8.65;4.00;;;-0.10;99.90;;;;;;5048678;28;20471;-51
2020/12/27 07:36:33;;;;;;;8.32;4.43;;;-0.10;99.90;;;;;;5048870;28;20409;-51
2020/12/27 07:39:02;;;;;;;8.70;4.20;;;-0.20;99.90;;;;;;5049499;28;20432;-50
2020/12/27 07:41:37;;;;;;;7.68;3.70;;;1.90;99.90;;;;;;5048070;28;20397;-51
2020/12/27 07:44:09;;;;;;;9.57;4.47;;;-0.10;99.90;;;;;;5049083;28;20854;-50
2020/12/27 07:46:35;;;;;;;9.60;4.63;;;-0.20;99.90;;;;;;5048821;28;20500;-51
2020/12/27 07:49:01;;;;;;;8.63;3.90;;;-0.10;99.90;;;;;;5049734;28;20468;-50
2020/12/27 07:51:26;;;;;;;7.10;3.83;;;0.00;99.90;;;;;;5047773;28;20851;-51
2020/12/27 07:53:54;;;;;;;8.40;4.00;;;0.00;99.90;;;;;;5045968;28;20382;-50
2020/12/27 07:56:27;;;;;;;7.10;3.47;;;0.00;99.90;;;;;;5046515;28;20432;-56
2020/12/27 07:58:54;;;;;;;7.60;3.60;;;0.00;99.90;;;;;;5047782;28;20397;-51
2020/12/27 08:01:27;;;;;;;7.63;3.58;;;0.10;99.90;;;;;;5048547;28;20488;-51
2020/12/27 08:04:00;;;;;;;7.72;4.13;;;0.10;99.90;;;;;;5049473;28;20398;-50
2020/12/27 08:06:28;;;;;;;6.32;3.30;;;0.20;99.90;;;;;;5047507;28;20401;-52
2020/12/27 08:09:09;;;;;;;7.07;3.25;;;0.30;99.90;;;;;;5048807;28;20398;-54
2020/12/27 08:11:40;;;;;;;8.68;3.67;;;0.30;99.90;;;;;;5047409;28;20405;-50
2020/12/27 08:14:11;;;;;;;8.70;4.03;;;0.30;99.90;;;;;;5044809;28;20460;-52
2020/12/27 08:16:38;;;;;;;7.35;3.70;;;0.50;99.90;;;;;;5031051;28;21040;-51
2020/12/27 08:19:05;;;;;;;6.90;3.60;;;0.50;99.90;;;;;;5048154;28;20409;-50
2020/12/27 08:21:32;;;;;;;7.28;3.50;;;0.60;99.90;;;;;;5047451;28;20401;-51
2020/12/27 08:24:09;;;;;;;8.85;4.35;;;0.50;99.90;;;;;;5049168;28;20378;-51
2020/12/27 08:26:36;;;;;;;8.20;3.70;;;2.60;99.90;;;;;;5047350;28;20394;-51
2020/12/27 08:29:17;;;;;;;7.50;3.70;;;0.40;99.90;;;;;;5052844;28;20465;-50
2020/12/27 08:31:45;;;;;;;10.95;4.43;;;0.40;99.90;;;;;;5051499;28;20883;-50
2020/12/27 08:34:18;;;;;;;10.20;4.60;;;0.40;99.90;;;;;;5051027;28;20416;-53
2020/12/27 08:36:50;;;;;;;8.10;3.70;;;0.40;99.90;;;;;;5052367;28;20389;-52
2020/12/27 08:39:34;;;;;;;9.67;3.93;;;0.40;99.90;;;;;;5032868;28;20407;-51
2020/12/27 08:42:30;;;;;;;6.87;3.60;;;2.80;99.90;;;;;;5031137;28;21001;-52
2020/12/27 08:45:08;;;;;;;6.88;3.60;;;0.40;99.90;;;;;;5032718;28;20387;-50
2020/12/27 08:47:46;;;;;;;6.63;3.10;;;0.40;99.90;;;;;;5030582;28;20415;-51
2020/12/27 08:50:24;;;;;;;8.63;4.40;;;0.50;99.90;;;;;;5031243;28;20399;-51
2020/12/27 08:53:01;;;;;;;6.85;3.97;;;3.20;99.90;;;;;;5031460;28;20429;-52
2020/12/27 08:55:29;;;;;;;9.50;3.90;;;0.60;99.90;;;;;;5030531;28;20422;-51
2020/12/27 08:57:56;;;;;;;6.10;2.90;;;0.70;99.90;;;;;;5030651;28;20411;-51
2020/12/27 09:00:29;;;;;;;6.95;3.03;;;1.60;99.90;;;;;;5030346;28;20402;-51
2020/12/27 09:02:57;;;;;;;7.13;3.10;;;0.80;99.90;;;;;;5031994;28;20382;-51
2020/12/27 09:05:30;;;;;;;6.72;3.10;;;3.30;99.90;;;;;;5029929;28;20409;-51
2020/12/27 09:07:56;;;;;;;6.43;3.20;;;1.00;99.90;;;;;;5030425;28;20423;-51
2020/12/27 09:10:23;;;;;;;6.67;3.30;;;1.00;99.90;;;;;;5029577;28;20460;-51
2020/12/27 09:12:56;;;;;;;8.07;3.42;;;1.10;99.90;;;;;;5031263;28;20768;-51
2020/12/27 09:15:35;;;;;;;6.50;3.17;;;1.10;99.90;;;;;;5028762;28;20796;-56
2020/12/27 09:18:03;;;;;;;8.00;3.50;;;1.10;99.90;;;;;;5028818;28;20445;-51
2020/12/27 09:20:31;;;;;;;6.90;2.70;;;3.50;99.90;;;;;;5029904;28;20445;-50
2020/12/27 09:22:57;;;;;;;6.65;3.08;;;3.20;99.90;;;;;;5031540;28;20462;-51
2020/12/27 09:25:24;;;;;;;6.80;2.80;;;4.50;99.90;;;;;;5029389;28;20405;-51
2020/12/27 09:27:52;;;;;;;13.27;7.82;;;1.30;99.90;;;;;;5030620;28;20418;-51
2020/12/27 09:30:25;;;;;;;7.18;3.72;;;1.40;99.90;;;;;;5046098;28;20810;-56
2020/12/27 09:32:59;;;;;;;6.23;3.47;;;1.50;99.90;;;;;;5029895;28;20456;-52
2020/12/27 09:35:25;;;;;;;7.82;3.33;;;1.60;99.90;;;;;;5029503;28;20422;-51
2020/12/27 09:37:51;;;;;;;6.63;3.30;;;1.60;99.90;;;;;;5036471;28;20405;-51
2020/12/27 09:40:18;;;;;;;9.57;4.63;;;1.60;99.90;;;;;;5048267;28;20408;-54
2020/12/27 09:42:44;;;;;;;7.00;2.77;;;1.50;99.90;;;;;;5049270;28;20393;-49
2020/12/27 09:45:21;;;;;;;6.15;2.90;;;3.80;99.90;;;;;;5048314;28;20402;-50
2020/12/27 09:47:58;;;;;;;9.95;4.32;;;4.70;99.90;;;;;;5049020;28;20409;-50
2020/12/27 09:50:29;;;;;;;6.85;4.00;;;1.80;99.90;;;;;;5047615;28;20405;-51
2020/12/27 09:52:55;;;;;;;6.88;3.33;;;1.90;99.90;;;;;;5049165;28;20468;-52
2020/12/27 09:55:21;;;;;;;6.18;3.03;;;2.00;99.90;;;;;;5048436;28;20595;-59
2020/12/27 09:57:47;;;;;;;6.00;2.80;;;2.00;99.90;;;;;;5047581;28;20397;-50
2020/12/27 10:00:13;;;;;;;6.05;2.50;;;1.90;99.90;;;;;;5049798;28;20439;-51
2020/12/27 10:02:39;;;;;;;8.07;3.20;;;2.00;99.90;;;;;;5047529;28;20484;-50
2020/12/27 10:05:05;;;;;;;5.82;2.50;;;2.10;99.90;;;;;;5048523;28;20464;-52
2020/12/27 10:07:30;;;;;;;7.97;3.35;;;2.00;99.90;;;;;;5047852;28;20500;-50
2020/12/27 10:09:56;;;;;;;4.88;2.45;;;3.90;99.90;;;;;;5048420;28;20409;-49
2020/12/27 10:12:22;;;;;;;6.87;3.10;;;1.80;99.90;;;;;;5046895;28;20925;-51
2020/12/27 10:14:51;;;;;;;7.45;3.50;;;1.90;99.90;;;;;;5050044;28;20472;-49
2020/12/27 10:17:17;;;;;;;7.47;3.28;;;1.90;99.90;;;;;;5048716;28;20424;-54
2020/12/27 10:19:43;;;;;;;6.63;3.30;;;2.90;99.90;;;;;;5049223;28;20727;-51
2020/12/27 10:22:09;;;;;;;6.97;3.78;;;2.00;99.90;;;;;;5049250;28;20890;-50
2020/12/27 10:24:36;;;;;;;9.52;4.50;;;3.90;99.90;;;;;;5047327;28;20431;-52
2020/12/27 10:27:04;;;;;;;6.68;3.03;;;2.10;99.90;;;;;;5051636;28;20462;-49
2020/12/27 10:29:30;;;;;;;7.25;3.80;;;3.90;99.90;;;;;;5045246;28;20796;-50
2020/12/27 10:31:59;;;;;;;6.55;3.40;;;2.30;99.90;;;;;;5044230;28;20393;-50
2020/12/27 10:34:25;;;;;;;7.35;4.43;;;2.60;99.90;;;;;;5046694;28;20467;-53
2020/12/27 10:36:52;;;;;;;7.35;3.85;;;4.10;99.90;;;;;;5046909;28;20425;-51
2020/12/27 10:39:19;;;;;;;8.32;3.55;;;5.30;99.90;;;;;;5049144;28;20496;-56
2020/12/27 10:41:46;;;;;;;8.60;4.13;;;2.20;99.90;;;;;;5047112;28;20485;-50
2020/12/27 10:44:12;;;;;;;7.80;4.30;;;2.10;99.90;;;;;;5048112;28;20393;-50
2020/12/27 10:46:38;;;;;;;8.18;4.05;;;2.10;99.90;;;;;;5039551;28;20402;-51
2020/12/27 10:49:05;;;;;;;10.90;6.88;;;2.10;99.90;;;;;;5046772;28;20429;-50
2020/12/27 10:51:35;;;;;;;9.00;4.10;;;4.40;99.90;;;;;;5046134;28;20787;-55
2020/12/27 10:54:01;;;;;;;10.10;3.90;;;4.90;99.90;;;;;;5047041;28;20433;-50
2020/12/27 10:56:26;;;;;;;8.73;4.18;;;3.20;99.90;;;;;;5049786;28;20432;-50
2020/12/27 10:58:52;;;;;;;8.07;4.30;;;2.60;99.90;;;;;;5048335;28;20389;-50
2020/12/27 11:01:18;;;;;;;10.35;4.40;;;3.10;99.90;;;;;;5040885;28;20421;-53
2020/12/27 11:03:43;;;;;;;8.95;4.10;;;1.80;99.90;;;;;;5047706;28;21222;-51
2020/12/27 11:06:09;;;;;;;7.90;4.10;;;1.80;99.90;;;;;;5042590;28;22054;-50
2020/12/27 11:08:34;;;;;;;8.38;4.13;;;4.60;99.90;;;;;;5046330;28;20420;-51
2020/12/27 11:11:00;;;;;;;9.15;4.50;;;4.40;99.90;;;;;;5048822;28;20401;-50
2020/12/27 11:13:26;;;;;;;8.73;4.60;;;1.90;99.90;;;;;;5047629;28;20480;-50
2020/12/27 11:15:52;;;;;;;9.40;4.30;;;1.80;99.90;;;;;;5048582;28;20377;-50
2020/12/27 11:18:18;;;;;;;9.10;4.43;;;3.40;99.90;;;;;;5044483;28;20878;-56
2020/12/27 11:20:44;;;;;;;11.10;5.40;;;4.80;99.90;;;;;;5038813;28;20766;-50
2020/12/27 11:23:09;;;;;;;8.80;4.60;;;1.70;99.90;;;;;;5045887;28;20427;-50
2020/12/27 11:25:35;;;;;;;10.02;4.95;;;2.80;99.90;;;;;;5045108;28;20392;-49
2020/12/27 11:28:01;;;;;;;12.70;7.07;;;1.70;99.90;;;;;;5045706;28;20405;-50
2020/12/27 11:30:26;;;;;;;15.13;6.93;;;4.60;99.90;;;;;;5045086;28;20405;-50
2020/12/27 11:32:52;;;;;;;10.70;5.80;;;1.60;99.90;;;;;;5045918;28;20433;-49
2020/12/27 11:35:18;;;;;;;10.18;5.55;;;2.90;99.90;;;;;;5047691;28;20441;-50
2020/12/27 11:37:44;;;;;;;10.30;5.50;;;1.50;99.90;;;;;;5048141;28;20409;-51
2020/12/27 11:40:09;;;;;;;11.30;5.47;;;1.40;99.90;;;;;;5047152;28;20404;-49
2020/12/27 11:42:36;;;;;;;10.07;5.40;;;1.40;99.90;;;;;;5044984;28;20393;-49
2020/12/27 11:45:04;;;;;;;11.88;5.72;;;1.40;99.90;;;;;;5040293;28;21479;-51
2020/12/27 11:47:29;;;;;;;10.55;5.90;;;1.40;99.90;;;;;;5046323;28;20873;-50
2020/12/27 11:49:55;;;;;;;9.67;5.63;;;4.00;99.90;;;;;;5042332;28;20403;-49
2020/12/27 11:52:24;;;;;;;12.07;5.90;;;1.50;99.90;;;;;;5038601;28;20742;-49
2020/12/27 11:54:53;;;;;;;9.88;5.60;;;1.50;99.90;;;;;;5043627;28;20447;-51
2020/12/27 11:57:19;;;;;;;9.93;6.00;;;1.50;99.90;;;;;;5044395;28;20436;-54
2020/12/27 11:59:44;;;;;;;13.00;6.00;;;2.90;99.90;;;;;;5038732;28;20422;-50
2020/12/27 12:02:10;;;;;;;11.90;5.93;;;2.70;99.90;;;;;;5044044;28;20413;-51
2020/12/27 12:04:36;;;;;;;11.23;5.83;;;1.60;99.90;;;;;;5041390;28;20921;-50
2020/12/27 12:07:02;;;;;;;10.60;6.33;;;1.70;99.90;;;;;;5042679;28;20409;-50
2020/12/27 12:09:28;;;;;;;10.55;6.30;;;4.40;99.90;;;;;;5040017;28;20401;-50
2020/12/27 12:11:54;;;;;;;12.02;6.75;;;1.70;99.90;;;;;;5046477;28;20390;-51
2020/12/27 12:14:19;;;;;;;11.23;6.30;;;4.70;99.90;;;;;;5044840;28;20381;-57
2020/12/27 12:16:45;;;;;;;11.82;5.90;;;3.30;99.90;;;;;;5039150;28;20476;-51
2020/12/27 12:19:10;;;;;;;12.00;5.93;;;4.70;99.90;;;;;;5046640;28;20403;-50
2020/12/27 12:21:36;;;;;;;10.60;6.07;;;3.70;99.90;;;;;;5040906;28;20393;-50
2020/12/27 12:24:02;;;;;;;10.73;5.90;;;3.00;99.90;;;;;;5043802;28;21228;-52
2020/12/27 12:26:29;;;;;;;10.00;5.60;;;1.90;99.90;;;;;;5046820;28;20488;-50
2020/12/27 12:28:56;;;;;;;11.23;6.28;;;4.60;99.90;;;;;;5043982;28;20827;-51
2020/12/27 12:31:23;;;;;;;11.20;6.00;;;4.40;99.90;;;;;;5045020;28;20909;-56
2020/12/27 12:33:49;;;;;;;11.50;5.93;;;3.20;99.90;;;;;;5045614;28;20508;-50
2020/12/27 12:36:16;;;;;;;10.95;5.63;;;1.90;99.90;;;;;;5045397;28;20465;-51
2020/12/27 12:38:42;;;;;;;10.55;5.55;;;3.80;99.90;;;;;;5047998;28;20390;-51
2020/12/27 12:41:11;;;;;;;11.27;6.07;;;3.70;99.90;;;;;;5040546;28;20839;-50
2020/12/27 12:43:41;;;;;;;10.77;5.70;;;2.90;99.90;;;;;;5044509;28;20459;-51
2020/12/27 12:46:07;;;;;;;9.38;5.55;;;1.90;99.90;;;;;;5045683;28;20390;-51
2020/12/27 12:48:33;;;;;;;8.35;5.20;;;2.00;99.90;;;;;;5043936;28;20413;-52
2020/12/27 12:50:59;;;;;;;9.43;5.07;;;3.50;99.90;;;;;;5044612;28;20527;-51
2020/12/27 12:53:25;;;;;;;11.33;5.57;;;1.90;99.90;;;;;;5046199;28;20521;-51
2020/12/27 12:55:52;;;;;;;10.90;6.00;;;3.20;99.90;;;;;;5045580;28;20397;-52